Time;durP1;ratioP1;P1;durP2;ratioP2;P2;SDS_P1;SDS_P2;PMS_P1;PMS_P2;Temp;Humidity;BMP_temperature;BMP_pressure;BME280_temperature;BME280_humidity;BME280_pressure;Samples;Min_cycle;Max_cycle;Signal;HPM_P1;HPM_P2
2024/01/19 00:02:19;;;;;;;7.63;1.75;;;-1.10;99.90;;;;;;5068046;28;20040;-69
2024/01/19 00:04:47;;;;;;;4.10;2.42;;;-1.10;99.90;;;;;;5087297;28;20044;-67
2024/01/19 00:07:15;;;;;;;8.82;2.42;;;-1.20;99.90;;;;;;5086468;28;20051;-67
2024/01/19 00:09:42;;;;;;;14.57;2.30;;;-1.20;99.90;;;;;;5091933;28;20803;-69
2024/01/19 00:12:10;;;;;;;7.80;2.47;;;-1.10;99.90;;;;;;5088054;28;20056;-66
2024/01/19 00:14:38;;;;;;;8.70;2.80;;;-1.20;99.90;;;;;;5079900;28;20052;-66
2024/01/19 00:17:05;;;;;;;3.88;1.95;;;-1.20;99.90;;;;;;5088335;28;20051;-65
2024/01/19 00:19:33;;;;;;;9.90;2.15;;;-1.20;99.90;;;;;;5079195;28;20049;-68
2024/01/19 00:22:01;;;;;;;8.85;1.80;;;-1.20;99.90;;;;;;5069457;28;20392;-63
2024/01/19 00:24:29;;;;;;;4.57;1.63;;;-1.20;99.90;;;;;;5088849;28;20048;-62
2024/01/19 00:26:57;;;;;;;3.67;1.92;;;-1.30;99.90;;;;;;5093430;28;20047;-63
2024/01/19 00:29:25;;;;;;;4.90;1.80;;;-1.30;99.90;;;;;;5078222;28;20081;-62
2024/01/19 00:31:53;;;;;;;2.67;1.40;;;-1.30;99.90;;;;;;5071985;28;20396;-63
2024/01/19 00:34:20;;;;;;;5.75;1.52;;;-1.30;99.90;;;;;;5086260;28;20052;-64
2024/01/19 00:36:48;;;;;;;7.22;2.00;;;-1.40;99.90;;;;;;5090647;28;20365;-61
2024/01/19 00:39:16;;;;;;;4.97;1.80;;;-1.40;99.90;;;;;;5097167;28;20499;-61
2024/01/19 00:41:44;;;;;;;5.15;1.92;;;-1.40;99.90;;;;;;5083668;28;20495;-64
2024/01/19 00:44:12;;;;;;;5.95;1.90;;;-1.40;99.90;;;;;;5088789;28;20052;-63
2024/01/19 00:46:39;;;;;;;3.40;1.20;;;-1.40;99.90;;;;;;5088902;28;20040;-65
2024/01/19 00:49:07;;;;;;;7.88;1.60;;;-1.40;99.90;;;;;;5089741;28;20052;-64
2024/01/19 00:51:35;;;;;;;10.70;2.28;;;-1.40;99.90;;;;;;5091884;28;20055;-64
2024/01/19 00:54:03;;;;;;;10.52;1.85;;;-1.40;99.90;;;;;;5094652;28;20046;-64
2024/01/19 00:56:31;;;;;;;5.10;1.50;;;-1.40;99.90;;;;;;5092010;28;20043;-60
2024/01/19 00:58:59;;;;;;;4.65;1.40;;;-1.40;99.90;;;;;;5084735;28;20032;-63
2024/01/19 01:01:27;;;;;;;6.30;1.30;;;-1.50;99.90;;;;;;5090777;28;20385;-61
2024/01/19 01:03:57;;;;;;;2.50;1.17;;;-1.50;99.90;;;;;;5085998;28;20058;-61
2024/01/19 01:06:26;;;;;;;4.95;1.40;;;-1.60;99.90;;;;;;5073331;28;20044;-60
2024/01/19 01:08:58;;;;;;;10.60;1.52;;;-1.60;99.90;;;;;;5096951;28;20055;-60
2024/01/19 01:11:27;;;;;;;4.03;1.20;;;-1.70;99.90;;;;;;5090430;28;20044;-67
2024/01/19 01:13:55;;;;;;;;;;;-1.70;99.90;;;;;;5095623;28;20528;-63
2024/01/19 01:16:23;;;;;;;4.50;1.30;;;-1.70;99.90;;;;;;5099691;28;19920;-66
2024/01/19 01:18:50;;;;;;;3.67;1.60;;;-1.70;99.90;;;;;;5089448;28;20036;-63
2024/01/19 01:21:18;;;;;;;2.78;1.30;;;-1.60;99.90;;;;;;5070626;28;20171;-64
2024/01/19 01:23:46;;;;;;;4.85;1.40;;;-1.60;99.90;;;;;;5081276;28;20044;-61
2024/01/19 01:26:13;;;;;;;5.57;1.30;;;-1.50;99.90;;;;;;5091102;28;20047;-63
2024/01/19 01:28:41;;;;;;;7.43;1.63;;;-1.50;99.90;;;;;;5098265;28;20040;-67
2024/01/19 01:31:09;;;;;;;5.18;1.80;;;-1.40;99.90;;;;;;5089557;28;20048;-68
2024/01/19 01:33:37;;;;;;;9.98;1.48;;;-1.40;99.90;;;;;;5088301;28;20059;-68
2024/01/19 01:36:05;;;;;;;5.05;0.88;;;-1.40;99.90;;;;;;5073284;28;20083;-64
2024/01/19 01:38:33;;;;;;;7.93;1.58;;;-1.40;99.90;;;;;;5096279;28;20051;-67
2024/01/19 01:41:00;;;;;;;4.20;1.35;;;-1.40;99.90;;;;;;5075165;28;20040;-66
2024/01/19 01:43:29;;;;;;;14.02;1.40;;;-1.40;99.90;;;;;;5078604;28;20040;-64
2024/01/19 01:45:57;;;;;;;3.75;1.50;;;-1.40;99.90;;;;;;5091191;28;20387;-61
2024/01/19 01:48:26;;;;;;;5.40;1.60;;;-1.40;99.90;;;;;;5084845;28;20068;-61
2024/01/19 01:50:55;;;;;;;4.28;1.30;;;-1.40;99.90;;;;;;5084172;28;20040;-61
2024/01/19 01:53:24;;;;;;;6.47;1.70;;;-1.30;99.90;;;;;;5080874;28;20502;-62
2024/01/19 01:55:52;;;;;;;5.63;1.75;;;-1.30;99.90;;;;;;5076219;28;20484;-61
2024/01/19 01:58:20;;;;;;;2.63;1.17;;;-1.30;99.90;;;;;;5083984;28;20384;-62
2024/01/19 02:00:49;;;;;;;2.08;1.55;;;-1.30;99.90;;;;;;5073601;28;20040;-60
2024/01/19 02:03:17;;;;;;;;;;;-1.30;99.90;;;;;;5074437;28;20496;-60
2024/01/19 02:05:44;;;;;;;3.00;1.10;;;-1.30;99.90;;;;;;5077171;28;19999;-61
2024/01/19 02:08:12;;;;;;;7.47;1.83;;;-1.40;99.90;;;;;;5085019;28;20047;-61
2024/01/19 02:10:40;;;;;;;2.38;1.35;;;-1.40;99.90;;;;;;5075437;28;20053;-61
2024/01/19 02:13:08;;;;;;;5.15;1.65;;;-1.40;99.90;;;;;;5073394;28;20052;-60
2024/01/19 02:15:37;;;;;;;9.93;1.50;;;-1.40;99.90;;;;;;5089605;28;20495;-60
2024/01/19 02:18:05;;;;;;;1.98;0.90;;;-1.40;99.90;;;;;;5089826;28;20506;-61
2024/01/19 02:20:33;;;;;;;4.68;1.10;;;-1.30;99.90;;;;;;5078668;28;20060;-62
2024/01/19 02:23:04;;;;;;;3.13;1.40;;;-1.30;99.90;;;;;;5081043;28;20049;-60
2024/01/19 02:25:32;;;;;;;3.38;1.08;;;-1.20;99.90;;;;;;5089807;28;20063;-60
2024/01/19 02:28:00;;;;;;;1.70;1.17;;;-1.20;99.90;;;;;;5089737;28;20397;-61
2024/01/19 02:30:29;;;;;;;6.68;1.40;;;-1.20;99.90;;;;;;5086679;28;20048;-64
2024/01/19 02:32:56;;;;;;;3.00;1.20;;;-1.10;99.90;;;;;;5069722;28;20032;-61
2024/01/19 02:35:24;;;;;;;5.95;1.33;;;-1.10;99.90;;;;;;5072751;28;20044;-64
2024/01/19 02:37:52;;;;;;;5.30;1.40;;;-1.00;99.90;;;;;;5089044;28;20538;-63
2024/01/19 02:40:19;;;;;;;2.83;1.08;;;-1.00;99.90;;;;;;5091492;28;20156;-66
2024/01/19 02:42:47;;;;;;;8.02;2.08;;;-1.00;99.90;;;;;;5091441;28;20476;-60
2024/01/19 02:45:15;;;;;;;2.80;0.90;;;-1.00;99.90;;;;;;5092308;28;20048;-61
2024/01/19 02:47:42;;;;;;;7.32;1.40;;;-1.00;99.90;;;;;;5086121;28;20064;-61
2024/01/19 02:50:10;;;;;;;3.85;1.10;;;-1.00;99.90;;;;;;5087391;28;20051;-60
2024/01/19 02:52:38;;;;;;;5.60;1.55;;;-1.00;99.90;;;;;;5082299;28;20052;-61
2024/01/19 02:55:06;;;;;;;4.15;1.20;;;-1.00;99.90;;;;;;5072508;28;20055;-61
2024/01/19 02:57:34;;;;;;;5.20;1.40;;;-1.00;99.90;;;;;;5076360;28;20369;-60
2024/01/19 03:00:03;;;;;;;6.40;1.25;;;-1.00;99.90;;;;;;5082776;28;20051;-61
2024/01/19 03:02:30;;;;;;;8.27;1.93;;;-1.00;99.90;;;;;;5087486;28;20040;-61
2024/01/19 03:04:58;;;;;;;7.72;1.50;;;-1.00;99.90;;;;;;5085721;28;20059;-61
2024/01/19 03:07:26;;;;;;;8.52;2.10;;;-1.00;99.90;;;;;;5093366;28;20403;-62
2024/01/19 03:09:53;;;;;;;5.57;2.53;;;-1.10;99.90;;;;;;5090098;28;20217;-60
2024/01/19 03:12:21;;;;;;;8.80;2.47;;;-1.10;99.90;;;;;;5086661;28;20052;-61
2024/01/19 03:14:49;;;;;;;6.50;1.65;;;-1.10;99.90;;;;;;5056581;28;20059;-60
2024/01/19 03:17:17;;;;;;;2.80;1.88;;;-1.20;99.90;;;;;;5076655;28;20052;-60
2024/01/19 03:19:44;;;;;;;5.57;1.60;;;-1.30;99.90;;;;;;5088919;28;20051;-61
2024/01/19 03:22:12;;;;;;;8.30;1.45;;;-1.30;99.90;;;;;;5089131;28;20047;-61
2024/01/19 03:24:40;;;;;;;8.70;3.03;;;-1.30;99.90;;;;;;5088651;28;20040;-61
2024/01/19 03:27:08;;;;;;;2.22;1.35;;;-1.40;99.90;;;;;;5092212;28;20048;-62
2024/01/19 03:29:35;;;;;;;5.70;2.10;;;-1.40;99.90;;;;;;5092426;28;20044;-61
2024/01/19 03:32:03;;;;;;;2.58;1.60;;;-1.50;99.90;;;;;;5071124;28;20055;-62
2024/01/19 03:34:31;;;;;;;5.43;1.70;;;-1.40;99.90;;;;;;5067496;28;20510;-60
2024/01/19 03:37:03;;;;;;;6.15;1.80;;;-1.40;99.90;;;;;;5070306;28;20048;-61
2024/01/19 03:39:34;;;;;;;8.23;2.50;;;-1.50;99.90;;;;;;5092686;28;20392;-66
2024/01/19 03:42:02;;;;;;;7.65;1.85;;;-1.50;99.90;;;;;;5088596;28;20052;-61
2024/01/19 03:44:30;;;;;;;5.15;1.50;;;-1.60;99.90;;;;;;5073228;28;20044;-66
2024/01/19 03:46:59;;;;;;;6.38;1.65;;;-1.60;99.90;;;;;;5073550;28;20055;-64
2024/01/19 03:49:27;;;;;;;11.73;2.10;;;-1.70;99.90;;;;;;5083421;28;20055;-64
2024/01/19 03:51:59;;;;;;;4.78;1.70;;;-1.70;99.90;;;;;;5082409;28;20392;-65
2024/01/19 03:54:27;;;;;;;7.35;1.50;;;-1.60;99.90;;;;;;5068371;28;20395;-65
2024/01/19 03:56:57;;;;;;;5.13;2.25;;;-1.60;99.90;;;;;;5069521;28;20174;-64
2024/01/19 03:59:25;;;;;;;5.97;1.75;;;-1.60;99.90;;;;;;5085571;28;20040;-67
2024/01/19 04:01:55;;;;;;;3.55;1.80;;;-1.70;99.90;;;;;;5077190;28;20511;-67
2024/01/19 04:04:23;;;;;;;;;;;-1.60;99.90;;;;;;5085845;28;20037;-66
2024/01/19 04:06:52;;;;;;;2.72;1.58;;;-1.70;99.90;;;;;;5078151;28;19927;-67
2024/01/19 04:09:20;;;;;;;3.08;1.90;;;-1.70;99.90;;;;;;5075061;28;20040;-67
2024/01/19 04:11:48;;;;;;;5.07;2.33;;;-1.80;99.90;;;;;;5066572;28;20098;-67
2024/01/19 04:14:15;;;;;;;3.78;1.88;;;-1.80;99.90;;;;;;5068155;28;20396;-66
2024/01/19 04:16:43;;;;;;;4.63;1.60;;;-1.90;99.90;;;;;;5071703;28;20048;-68
2024/01/19 04:19:11;;;;;;;4.70;2.10;;;-1.80;99.90;;;;;;5084410;28;20458;-67
2024/01/19 04:21:39;;;;;;;4.20;2.15;;;-2.00;99.90;;;;;;5081681;28;20055;-66
2024/01/19 04:24:07;;;;;;;4.10;1.92;;;-2.00;99.90;;;;;;5068071;28;20051;-66
2024/01/19 04:26:37;;;;;;;5.65;1.95;;;-2.00;99.90;;;;;;5068171;28;20048;-67
2024/01/19 04:29:05;;;;;;;2.40;2.05;;;-2.10;99.90;;;;;;5086772;28;20491;-64
2024/01/19 04:31:33;;;;;;;6.20;2.38;;;-2.10;99.90;;;;;;5087442;28;20036;-67
2024/01/19 04:34:01;;;;;;;9.13;2.20;;;-2.10;99.90;;;;;;5086987;28;20051;-66
2024/01/19 04:36:28;;;;;;;8.02;2.78;;;-2.10;99.90;;;;;;5088143;28;20047;-66
2024/01/19 04:38:56;;;;;;;3.85;2.03;;;-2.20;99.90;;;;;;5087721;28;20060;-66
2024/01/19 04:41:24;;;;;;;3.15;2.13;;;-2.20;99.90;;;;;;5067103;28;20060;-64
2024/01/19 04:43:52;;;;;;;6.78;3.28;;;-2.20;99.90;;;;;;5069633;28;20036;-62
2024/01/19 04:46:19;;;;;;;5.10;2.00;;;-2.20;99.90;;;;;;5079417;28;20043;-62
2024/01/19 04:48:47;;;;;;;4.78;2.35;;;-2.20;99.90;;;;;;5101094;28;20043;-63
2024/01/19 04:51:15;;;;;;;3.50;2.30;;;-2.20;99.90;;;;;;5108616;28;20047;-66
2024/01/19 04:53:42;;;;;;;8.20;4.53;;;-2.20;99.90;;;;;;5108334;28;20394;-66
2024/01/19 04:56:10;;;;;;;5.10;2.35;;;-2.20;99.90;;;;;;5076518;28;20040;-66
2024/01/19 04:58:38;;;;;;;6.65;2.33;;;-2.20;99.90;;;;;;5093659;28;20046;-66
2024/01/19 05:01:06;;;;;;;8.23;2.47;;;-2.20;99.90;;;;;;5072930;28;20055;-66
2024/01/19 05:03:33;;;;;;;8.82;2.47;;;-2.20;99.90;;;;;;5085268;28;20479;-61
2024/01/19 05:06:01;;;;;;;4.90;2.47;;;-2.20;99.90;;;;;;5073604;28;20051;-60
2024/01/19 05:08:29;;;;;;;6.03;2.05;;;-2.20;99.90;;;;;;5085276;28;20044;-62
2024/01/19 05:10:56;;;;;;;9.63;3.13;;;-2.20;99.90;;;;;;5087533;28;20051;-62
2024/01/19 05:13:24;;;;;;;4.05;2.05;;;-2.20;99.90;;;;;;5083307;28;20052;-61
2024/01/19 05:15:52;;;;;;;8.50;2.35;;;-2.20;99.90;;;;;;5090416;28;20069;-62
2024/01/19 05:18:21;;;;;;;3.85;2.50;;;-2.20;99.90;;;;;;5085598;28;20039;-63
2024/01/19 05:20:49;;;;;;;4.93;2.10;;;-2.20;99.90;;;;;;5094803;28;20391;-64
2024/01/19 05:23:17;;;;;;;5.55;2.22;;;-2.20;99.90;;;;;;5092053;28;20504;-62
2024/01/19 05:25:44;;;;;;;14.73;2.78;;;-2.30;99.90;;;;;;5091661;28;20048;-60
2024/01/19 05:28:12;;;;;;;7.18;2.60;;;-2.30;99.90;;;;;;5092431;28;20052;-62
2024/01/19 05:30:40;;;;;;;10.60;2.78;;;-2.30;99.90;;;;;;5087546;28;20044;-62
2024/01/19 05:33:07;;;;;;;5.05;2.22;;;-2.30;99.90;;;;;;5094318;28;20078;-62
2024/01/19 05:35:35;;;;;;;6.55;2.60;;;-2.40;99.90;;;;;;5079067;28;20071;-61
2024/01/19 05:38:03;;;;;;;8.05;3.00;;;-2.40;99.90;;;;;;5085431;28;20053;-62
2024/01/19 05:40:30;;;;;;;7.03;2.50;;;-2.40;99.90;;;;;;5094151;28;20044;-62
2024/01/19 05:42:58;;;;;;;11.55;2.47;;;-2.30;99.90;;;;;;5094368;28;20048;-62
2024/01/19 05:45:25;;;;;;;5.22;2.28;;;-2.40;99.90;;;;;;5094364;28;20500;-62
2024/01/19 05:47:53;;;;;;;3.97;2.35;;;-2.40;99.90;;;;;;5083016;28;20036;-66
2024/01/19 05:50:20;;;;;;;7.93;2.40;;;-2.40;99.90;;;;;;5079940;28;20053;-62
2024/01/19 05:52:49;;;;;;;16.77;3.63;;;-2.40;99.90;;;;;;5070296;28;20041;-63
2024/01/19 05:55:17;;;;;;;5.35;2.50;;;-2.40;99.90;;;;;;5085596;28;20047;-61
2024/01/19 05:57:44;;;;;;;8.45;2.55;;;-2.40;99.90;;;;;;5090165;28;20051;-63
2024/01/19 06:00:12;;;;;;;6.32;2.72;;;-2.40;99.90;;;;;;5090755;28;20044;-63
2024/01/19 06:02:40;;;;;;;8.77;2.75;;;-2.30;99.90;;;;;;5075130;28;20044;-62
2024/01/19 06:05:08;;;;;;;5.47;2.15;;;-2.30;99.90;;;;;;5084103;28;20824;-62
2024/01/19 06:07:36;;;;;;;7.35;2.80;;;-2.30;99.90;;;;;;5078864;28;20398;-67
2024/01/19 06:10:04;;;;;;;7.40;1.85;;;-2.20;99.90;;;;;;5079836;28;20056;-65
2024/01/19 06:12:32;;;;;;;7.50;2.13;;;-2.10;99.90;;;;;;5076004;28;20238;-61
2024/01/19 06:14:59;;;;;;;4.13;2.42;;;-2.00;99.90;;;;;;5090620;28;20523;-63
2024/01/19 06:17:27;;;;;;;9.43;3.05;;;-1.90;99.90;;;;;;5083399;28;20395;-65
2024/01/19 06:19:55;;;;;;;7.53;3.85;;;-1.90;99.90;;;;;;5066100;28;20052;-64
2024/01/19 06:22:24;;;;;;;7.70;3.50;;;-1.80;99.90;;;;;;5086953;28;20514;-66
2024/01/19 06:24:51;;;;;;;6.60;2.92;;;-1.80;99.90;;;;;;5078612;28;20044;-66
2024/01/19 06:27:21;;;;;;;5.13;2.47;;;-1.80;99.90;;;;;;5085493;28;20778;-67
2024/01/19 06:29:48;;;;;;;8.93;2.67;;;-1.70;99.90;;;;;;5077673;28;20037;-66
2024/01/19 06:32:16;;;;;;;13.13;2.75;;;-1.70;99.90;;;;;;5083863;28;20443;-63
2024/01/19 06:34:44;;;;;;;4.22;2.92;;;-1.70;99.90;;;;;;5070281;28;20055;-62
2024/01/19 06:37:12;;;;;;;5.90;2.47;;;-1.70;99.90;;;;;;5075751;28;20056;-63
2024/01/19 06:39:39;;;;;;;4.40;2.13;;;-1.60;99.90;;;;;;5088000;28;20388;-62
2024/01/19 06:42:07;;;;;;;7.28;2.50;;;-1.60;99.90;;;;;;5081727;28;20058;-64
2024/01/19 06:44:35;;;;;;;6.93;2.35;;;-1.60;99.90;;;;;;5089562;28;20043;-64
2024/01/19 06:47:03;;;;;;;6.47;3.25;;;-1.60;99.90;;;;;;5091636;28;20052;-62
2024/01/19 06:49:31;;;;;;;10.43;2.88;;;-1.50;99.90;;;;;;5085781;28;20048;-62
2024/01/19 06:51:59;;;;;;;6.00;2.63;;;-1.50;99.90;;;;;;5085509;28;20044;-63
2024/01/19 06:54:27;;;;;;;4.78;1.90;;;-1.40;99.90;;;;;;5082501;28;20048;-63
2024/01/19 06:56:55;;;;;;;5.30;2.50;;;-1.40;99.90;;;;;;5087585;28;20036;-63
2024/01/19 06:59:23;;;;;;;7.07;2.97;;;-1.30;99.90;;;;;;5089399;28;20580;-66
2024/01/19 07:01:52;;;;;;;11.48;3.08;;;-1.30;99.90;;;;;;5084564;28;20775;-65
2024/01/19 07:04:19;;;;;;;21.42;2.22;;;-1.30;99.90;;;;;;5079132;28;20048;-64
2024/01/19 07:06:47;;;;;;;3.47;2.17;;;-1.30;99.90;;;;;;5077810;28;20071;-62
2024/01/19 07:09:17;;;;;;;2.60;1.70;;;-1.20;99.90;;;;;;5073302;28;20358;-62
2024/01/19 07:11:45;;;;;;;5.28;2.60;;;-1.20;99.90;;;;;;5064733;28;20052;-63
2024/01/19 07:14:12;;;;;;;3.35;2.50;;;-1.10;99.90;;;;;;5076051;28;20048;-64
2024/01/19 07:16:43;;;;;;;5.40;2.42;;;-1.20;99.90;;;;;;5085931;28;20073;-63
2024/01/19 07:19:11;;;;;;;4.55;2.33;;;-1.20;99.90;;;;;;5084462;28;20048;-66
2024/01/19 07:21:43;;;;;;;15.55;3.30;;;-1.10;99.90;;;;;;5086434;28;20070;-67
2024/01/19 07:24:11;;;;;;;10.05;3.40;;;-1.10;99.90;;;;;;5072062;28;20055;-67
2024/01/19 07:26:40;;;;;;;1.77;1.27;;;-1.10;99.90;;;;;;5070203;28;20067;-63
2024/01/19 07:29:09;;;;;;;4.88;2.13;;;-1.00;99.90;;;;;;5075754;28;20048;-63
2024/01/19 07:31:37;;;;;;;4.10;1.15;;;-1.00;99.90;;;;;;5070928;28;20609;-64
2024/01/19 07:34:05;;;;;;;5.13;2.10;;;-0.90;99.90;;;;;;5069821;28;20043;-63
2024/01/19 07:36:33;;;;;;;5.75;2.15;;;-0.90;99.90;;;;;;5086844;28;20075;-63
2024/01/19 07:39:00;;;;;;;9.00;2.88;;;-0.80;99.90;;;;;;5087138;28;20054;-62
2024/01/19 07:41:28;;;;;;;4.53;2.00;;;-0.80;99.90;;;;;;5081724;28;20048;-62
2024/01/19 07:43:56;;;;;;;6.30;2.63;;;-0.80;99.90;;;;;;5085442;28;20048;-63
2024/01/19 07:46:23;;;;;;;3.97;2.00;;;-0.80;99.90;;;;;;5073483;28;20538;-65
2024/01/19 07:48:51;;;;;;;4.53;1.92;;;-0.80;99.90;;;;;;5077076;28;20054;-65
2024/01/19 07:51:21;;;;;;;6.20;2.80;;;-0.80;99.90;;;;;;5066336;28;20053;-64
2024/01/19 07:53:49;;;;;;;9.13;2.90;;;-0.80;99.90;;;;;;5079734;28;20066;-64
2024/01/19 07:56:17;;;;;;;5.27;1.87;;;-0.70;99.90;;;;;;5077951;28;20049;-65
2024/01/19 07:58:45;;;;;;;8.32;2.22;;;-0.70;99.90;;;;;;5082008;28;20307;-64
2024/01/19 08:01:13;;;;;;;3.88;2.03;;;-0.70;99.90;;;;;;5073629;28;20060;-65
2024/01/19 08:03:42;;;;;;;2.95;1.77;;;-0.70;99.90;;;;;;5090010;28;20403;-63
2024/01/19 08:06:11;;;;;;;8.82;2.28;;;-0.70;99.90;;;;;;5080294;28;20043;-62
2024/01/19 08:08:39;;;;;;;5.60;2.03;;;-0.60;99.90;;;;;;5085001;28;20040;-63
2024/01/19 08:11:06;;;;;;;5.00;1.92;;;-0.60;99.90;;;;;;5083068;28;20059;-63
2024/01/19 08:13:34;;;;;;;10.20;3.47;;;-0.60;99.90;;;;;;5082935;28;20048;-63
2024/01/19 08:16:02;;;;;;;6.38;2.83;;;-0.60;99.90;;;;;;5072116;28;20548;-62
2024/01/19 08:18:33;;;;;;;7.35;3.35;;;-0.60;99.90;;;;;;5077866;28;20495;-63
2024/01/19 08:21:04;;;;;;;3.75;1.35;;;-0.70;99.90;;;;;;5078827;28;20051;-62
2024/01/19 08:23:33;;;;;;;9.18;2.38;;;-0.70;99.90;;;;;;5071911;28;20049;-65
2024/01/19 08:26:05;;;;;;;6.03;2.40;;;-0.70;99.90;;;;;;5070990;28;20139;-63
2024/01/19 08:28:33;;;;;;;3.15;1.90;;;-0.70;99.90;;;;;;5062520;28;20048;-63
2024/01/19 08:31:01;;;;;;;6.13;2.28;;;-0.70;99.90;;;;;;5078012;28;20047;-63
2024/01/19 08:33:29;;;;;;;12.00;2.30;;;-0.60;99.90;;;;;;5076814;28;20048;-64
2024/01/19 08:35:56;;;;;;;3.35;1.88;;;-0.50;99.90;;;;;;5088170;28;20039;-63
2024/01/19 08:38:24;;;;;;;4.88;1.65;;;-0.50;99.90;;;;;;5088700;28;20418;-65
2024/01/19 08:40:52;;;;;;;5.05;1.58;;;-0.40;99.90;;;;;;5088558;28;20037;-67
2024/01/19 08:43:20;;;;;;;4.35;2.05;;;-0.40;99.90;;;;;;5094965;28;20054;-67
2024/01/19 08:45:47;;;;;;;2.58;1.73;;;-0.40;99.90;;;;;;5090388;28;20032;-65
2024/01/19 08:48:15;;;;;;;4.95;1.85;;;-0.30;99.90;;;;;;5091639;28;20040;-66
2024/01/19 08:50:44;;;;;;;3.70;1.37;;;-0.30;99.90;;;;;;5090203;28;20040;-67
2024/01/19 08:53:11;;;;;;;2.80;1.52;;;-0.20;99.90;;;;;;5090684;28;20055;-66
2024/01/19 08:55:42;;;;;;;2.63;1.50;;;-0.20;99.90;;;;;;5092304;28;20450;-67
2024/01/19 08:58:10;;;;;;;4.65;1.67;;;-0.20;99.90;;;;;;5091231;28;20089;-67
2024/01/19 09:00:37;;;;;;;4.65;1.40;;;-0.10;99.90;;;;;;5087119;28;20051;-68
2024/01/19 09:03:05;;;;;;;3.10;1.33;;;-0.10;99.90;;;;;;5086211;28;20048;-62
2024/01/19 09:05:34;;;;;;;3.15;1.05;;;0.00;99.90;;;;;;5113090;28;20497;-67
2024/01/19 09:08:03;;;;;;;2.88;1.88;;;0.00;99.90;;;;;;5103716;28;20044;-62
2024/01/19 09:10:30;;;;;;;6.03;1.45;;;0.10;99.90;;;;;;5091831;28;20387;-63
2024/01/19 09:12:58;;;;;;;21.67;3.10;;;0.20;99.90;;;;;;5095317;28;20044;-64
2024/01/19 09:15:26;;;;;;;2.38;1.00;;;0.20;99.90;;;;;;5073003;28;20045;-65
2024/01/19 09:17:53;;;;;;;2.17;1.30;;;0.30;99.90;;;;;;5073037;28;20048;-63
2024/01/19 09:20:21;;;;;;;2.95;1.10;;;0.30;99.90;;;;;;5085388;28;20044;-62
2024/01/19 09:22:50;;;;;;;5.73;1.10;;;0.40;99.90;;;;;;5083993;28;20059;-64
2024/01/19 09:25:17;;;;;;;3.20;1.70;;;0.50;99.90;;;;;;5090268;28;20043;-64
2024/01/19 09:27:45;;;;;;;1.70;1.00;;;0.50;99.90;;;;;;5088962;28;20048;-63
2024/01/19 09:30:13;;;;;;;7.30;2.13;;;0.50;99.90;;;;;;5084884;28;20051;-62
2024/01/19 09:32:41;;;;;;;2.00;1.25;;;0.60;99.90;;;;;;5082008;28;20040;-63
2024/01/19 09:35:09;;;;;;;6.15;1.30;;;0.70;99.90;;;;;;5087166;28;20044;-65
2024/01/19 09:37:36;;;;;;;2.90;1.40;;;0.70;99.90;;;;;;5080837;28;20055;-66
2024/01/19 09:40:04;;;;;;;3.03;1.23;;;0.80;99.90;;;;;;5090301;28;20510;-64
2024/01/19 09:42:33;;;;;;;4.10;1.45;;;0.80;99.90;;;;;;5087601;28;20070;-63
2024/01/19 09:45:05;;;;;;;4.80;1.52;;;0.80;99.90;;;;;;5086207;28;20040;-62
2024/01/19 09:47:54;;;;;;;5.50;1.38;;;0.90;99.90;;;;;;5076206;28;20479;-63
2024/01/19 09:50:26;;;;;;;2.25;0.90;;;0.90;99.90;;;;;;5086745;28;20048;-65
2024/01/19 09:53:00;;;;;;;3.85;0.95;;;1.00;99.90;;;;;;5090983;28;20047;-67
2024/01/19 09:55:29;;;;;;;3.60;1.23;;;1.10;99.90;;;;;;5075475;28;20044;-68
2024/01/19 09:57:57;;;;;;;1.20;0.88;;;1.10;99.90;;;;;;5091028;28;20047;-65
2024/01/19 10:00:24;;;;;;;3.28;0.93;;;1.20;99.90;;;;;;5089172;28;20048;-66
2024/01/19 10:02:53;;;;;;;5.32;1.30;;;1.20;99.90;;;;;;5092719;28;20483;-67
2024/01/19 10:05:23;;;;;;;3.97;1.35;;;1.30;99.90;;;;;;5091552;28;20036;-67
2024/01/19 10:07:55;;;;;;;1.38;1.00;;;1.30;99.90;;;;;;5091466;28;20048;-65
2024/01/19 10:10:25;;;;;;;3.97;0.80;;;1.40;99.90;;;;;;5080638;28;20036;-63
2024/01/19 10:12:53;;;;;;;1.52;0.90;;;1.40;99.90;;;;;;5090101;28;20052;-65
2024/01/19 10:15:21;;;;;;;2.92;0.90;;;1.50;99.90;;;;;;5089772;28;20052;-63
2024/01/19 10:17:51;;;;;;;3.22;1.50;;;1.50;99.90;;;;;;5079388;28;20047;-69
2024/01/19 10:20:19;;;;;;;8.98;2.28;;;1.60;99.90;;;;;;5079138;28;20396;-67
2024/01/19 10:22:47;;;;;;;4.75;2.28;;;1.70;99.90;;;;;;5083139;28;20039;-67
2024/01/19 10:25:15;;;;;;;4.95;1.77;;;1.70;99.90;;;;;;5090590;28;20044;-68
2024/01/19 10:27:44;;;;;;;2.13;1.30;;;1.80;99.90;;;;;;5095094;28;20052;-67
2024/01/19 10:30:24;;;;;;;4.05;1.33;;;1.80;99.90;;;;;;5086628;28;20052;-66
2024/01/19 10:33:04;;;;;;;4.32;1.50;;;1.90;99.90;;;;;;5086807;28;20136;-67
2024/01/19 10:35:33;;;;;;;7.75;2.20;;;2.00;99.90;;;;;;5110208;28;20054;-65
2024/01/19 10:38:07;;;;;;;5.75;2.38;;;1.90;99.90;;;;;;5102272;28;20044;-67
2024/01/19 10:40:35;;;;;;;;;;;2.00;99.90;;;;;;5075534;28;20044;-66
2024/01/19 10:43:03;;;;;;;4.22;1.65;;;2.00;99.90;;;;;;5087833;28;19956;-62
2024/01/19 10:45:34;;;;;;;3.58;1.88;;;2.00;99.90;;;;;;5078122;28;20059;-61
2024/01/19 10:48:06;;;;;;;1.40;0.63;;;2.10;99.90;;;;;;5078107;28;20074;-61
2024/01/19 10:50:34;;;;;;;0.95;0.80;;;2.10;99.90;;;;;;5088811;28;20036;-61
2024/01/19 10:53:12;;;;;;;1.85;0.88;;;2.20;99.90;;;;;;5089171;28;20506;-61
2024/01/19 10:55:47;;;;;;;1.77;1.00;;;2.20;99.90;;;;;;5072120;28;20047;-60
2024/01/19 10:58:15;;;;;;;5.47;1.10;;;2.30;99.90;;;;;;5081486;28;20044;-60
2024/01/19 11:00:42;;;;;;;2.05;0.77;;;2.30;99.90;;;;;;5094228;28;20059;-60
2024/01/19 11:03:10;;;;;;;2.35;0.80;;;2.40;99.90;;;;;;5093379;28;20048;-61
2024/01/19 11:05:39;;;;;;;2.47;0.90;;;2.50;99.90;;;;;;5088230;28;20491;-61
2024/01/19 11:08:07;;;;;;;5.68;0.70;;;2.50;99.90;;;;;;5079125;28;20041;-61
2024/01/19 11:10:35;;;;;;;4.45;1.25;;;2.60;99.90;;;;;;5069780;28;20045;-60
2024/01/19 11:13:08;;;;;;;3.78;1.08;;;2.60;99.90;;;;;;5087540;28;20498;-64
2024/01/19 11:15:49;;;;;;;2.38;0.77;;;2.70;99.90;;;;;;5088080;28;20608;-63
2024/01/19 11:18:17;;;;;;;2.28;0.50;;;2.80;99.90;;;;;;5070882;28;20041;-65
2024/01/19 11:20:45;;;;;;;2.22;1.00;;;3.00;99.90;;;;;;5085483;28;20055;-61
2024/01/19 11:23:14;;;;;;;3.55;0.63;;;3.10;99.90;;;;;;5079283;28;20048;-62
2024/01/19 11:25:45;;;;;;;5.45;1.02;;;3.20;99.90;;;;;;5069438;28;20049;-65
2024/01/19 11:28:24;;;;;;;5.28;1.00;;;3.40;99.90;;;;;;5081545;28;20051;-63
2024/01/19 11:31:15;;;;;;;3.45;0.90;;;3.50;99.90;;;;;;5079229;28;20495;-66
2024/01/19 11:33:43;;;;;;;1.02;0.50;;;3.70;99.90;;;;;;5077637;28;20040;-64
2024/01/19 11:36:41;;;;;;;2.30;0.45;;;3.80;99.90;;;;;;5089055;28;20383;-63
2024/01/19 11:39:09;;;;;;;4.40;0.70;;;4.00;99.90;;;;;;5069877;28;20055;-63
2024/01/19 11:41:37;;;;;;;4.30;1.17;;;4.20;99.90;;;;;;5086318;28;20040;-62
2024/01/19 11:44:06;;;;;;;5.97;0.85;;;4.30;99.90;;;;;;5078983;28;20047;-63
2024/01/19 11:46:44;;;;;;;7.75;0.80;;;4.60;99.90;;;;;;5086505;28;20036;-63
2024/01/19 11:49:31;;;;;;;4.43;0.70;;;4.70;99.90;;;;;;5071810;28;20859;-64
2024/01/19 11:52:03;;;;;;;3.65;1.23;;;4.90;99.90;;;;;;5086877;28;20404;-62
2024/01/19 11:54:33;;;;;;;3.88;0.70;;;5.00;99.90;;;;;;5073401;28;20053;-61
2024/01/19 11:57:24;;;;;;;8.18;1.02;;;5.00;99.90;;;;;;5069001;28;20075;-60
2024/01/19 11:59:55;;;;;;;2.45;1.05;;;5.00;99.90;;;;;;5067267;28;20055;-64
2024/01/19 12:02:30;;;;;;;5.63;1.00;;;5.10;99.90;;;;;;5083362;28;20052;-62
2024/01/19 12:05:02;;;;;;;4.80;1.20;;;5.20;99.90;;;;;;5086960;28;20052;-65
2024/01/19 12:07:30;;;;;;;3.60;1.05;;;5.20;99.90;;;;;;5088255;28;20052;-66
2024/01/19 12:10:08;;;;;;;1.48;0.95;;;5.40;99.90;;;;;;5085186;28;20051;-62
2024/01/19 12:12:37;;;;;;;4.65;1.27;;;5.70;99.90;;;;;;5085684;28;20047;-67
2024/01/19 12:15:10;;;;;;;1.63;0.80;;;5.90;99.90;;;;;;5081593;28;20052;-62
2024/01/19 12:17:40;;;;;;;2.05;0.50;;;6.10;99.90;;;;;;5076402;28;20044;-65
2024/01/19 12:20:15;;;;;;;7.18;0.90;;;6.40;99.90;;;;;;5071672;28;20052;-67
2024/01/19 12:22:45;;;;;;;4.72;0.63;;;6.70;99.90;;;;;;5069044;28;20041;-63
2024/01/19 12:25:20;;;;;;;3.28;1.80;;;7.00;99.90;;;;;;5067534;28;20056;-66
2024/01/19 12:28:05;;;;;;;1.52;0.93;;;7.30;99.90;;;;;;5071165;28;20403;-61
2024/01/19 12:30:38;;;;;;;1.73;0.73;;;7.50;99.90;;;;;;5068834;28;20045;-63
2024/01/19 12:33:18;;;;;;;3.38;0.98;;;7.70;99.90;;;;;;5083999;28;20504;-61
2024/01/19 12:35:46;;;;;;;2.05;0.70;;;8.00;99.90;;;;;;5080295;28;20040;-61
2024/01/19 12:38:15;;;;;;;3.40;0.95;;;8.20;99.90;;;;;;5080440;28;20048;-67
2024/01/19 12:40:43;;;;;;;3.03;1.10;;;8.20;99.90;;;;;;5067576;28;20411;-67
2024/01/19 12:43:12;;;;;;;8.00;1.00;;;8.20;99.90;;;;;;5074010;28;20040;-65
2024/01/19 12:45:40;;;;;;;2.60;1.38;;;8.20;99.90;;;;;;5077408;28;20036;-62
2024/01/19 12:48:09;;;;;;;1.98;0.80;;;8.00;99.90;;;;;;5077039;28;20036;-63
2024/01/19 12:50:52;;;;;;;2.97;1.30;;;7.90;99.90;;;;;;5072768;28;20052;-68
2024/01/19 12:53:19;;;;;;;5.38;1.20;;;8.00;99.90;;;;;;5082615;28;20427;-69
2024/01/19 12:55:51;;;;;;;5.05;1.15;;;8.10;99.90;;;;;;5083343;28;20047;-68
2024/01/19 12:58:22;;;;;;;1.75;0.93;;;8.30;99.90;;;;;;5075159;28;20055;-64
2024/01/19 13:00:50;;;;;;;1.80;0.90;;;8.60;99.90;;;;;;5072125;28;20060;-61